createdAt,value
2022-09-23T00:00:32.349Z,5.88
2022-09-23T00:01:32.369Z,5.82
2022-09-23T00:02:33.327Z,5.81
2022-09-23T00:03:33.775Z,5.78
2022-09-23T00:04:32.188Z,5.77
2022-09-23T00:05:32.208Z,5.78
2022-09-23T00:06:32.207Z,5.82
2022-09-23T00:07:32.179Z,5.85
2022-09-23T00:08:32.142Z,5.86
2022-09-23T00:09:32.149Z,5.88
2022-09-23T00:10:32.100Z,5.91
2022-09-23T00:11:32.156Z,5.93
2022-09-23T00:12:32.139Z,5.91
2022-09-23T00:13:32.092Z,5.93
2022-09-23T00:14:32.098Z,5.96
2022-09-23T00:15:32.996Z,6.00
2022-09-23T00:16:32.919Z,6.06
2022-09-23T00:17:32.118Z,6.10
2022-09-23T00:18:31.989Z,6.09
2022-09-23T00:19:32.065Z,6.07
2022-09-23T00:20:32.066Z,6.03
2022-09-23T00:21:32.900Z,5.98
2022-09-23T00:22:32.803Z,5.91
2022-09-23T00:23:31.908Z,5.83
2022-09-23T00:24:32.876Z,5.81
2022-09-23T00:25:33.342Z,5.74
2022-09-23T00:26:31.911Z,5.70
2022-09-23T00:27:32.840Z,5.66
2022-09-23T00:28:32.275Z,5.64
2022-09-23T00:29:31.862Z,5.66
2022-09-23T00:30:32.847Z,5.63
2022-09-23T00:31:31.824Z,5.63
2022-09-23T00:32:32.615Z,5.64
2022-09-23T00:33:32.772Z,5.63
2022-09-23T00:34:32.232Z,5.66
2022-09-23T00:35:31.813Z,5.66
2022-09-23T00:36:31.764Z,5.67
2022-09-23T00:37:32.573Z,5.70
2022-09-23T00:38:32.852Z,5.73
2022-09-23T00:39:31.785Z,5.73
2022-09-23T00:40:32.290Z,5.73
2022-09-23T00:41:31.758Z,5.77
2022-09-23T00:42:31.715Z,5.78
2022-09-23T00:43:32.234Z,5.81
2022-09-23T00:44:32.223Z,5.78
2022-09-23T00:45:32.910Z,5.78
2022-09-23T00:46:31.685Z,5.77
2022-09-23T00:47:31.615Z,5.77
2022-09-23T00:48:32.076Z,5.75
2022-09-23T00:49:31.628Z,5.75
2022-09-23T00:50:31.636Z,5.77
2022-09-23T00:51:31.586Z,5.78
2022-09-23T00:52:31.517Z,5.78
2022-09-23T00:53:32.386Z,5.81
2022-09-23T00:54:31.587Z,5.81
2022-09-23T00:55:32.456Z,5.82
2022-09-23T00:56:31.626Z,5.85
2022-09-23T00:57:32.207Z,5.88
2022-09-23T00:58:31.486Z,5.91
2022-09-23T00:59:31.699Z,5.92
2022-09-23T01:00:32.287Z,5.93
2022-09-23T01:01:37.646Z,5.93
2022-09-23T01:02:42.925Z,5.92
2022-09-23T01:03:31.387Z,5.92
2022-09-23T01:04:31.398Z,5.91
2022-09-23T01:05:32.996Z,5.89
2022-09-23T01:06:32.045Z,5.89
2022-09-23T01:07:31.367Z,5.85
2022-09-23T01:08:31.345Z,5.85
2022-09-23T01:09:31.465Z,5.85
2022-09-23T01:10:32.137Z,5.82
2022-09-23T01:11:31.480Z,5.83
2022-09-23T01:12:36.451Z,5.85
2022-09-23T01:13:33.029Z,5.83
2022-09-23T01:14:32.497Z,5.85
2022-09-23T01:15:31.847Z,5.86
2022-09-23T01:16:31.794Z,5.91
2022-09-23T01:17:31.391Z,5.92
2022-09-23T01:18:31.519Z,5.92
2022-09-23T01:19:31.932Z,5.93
2022-09-23T01:20:31.142Z,5.93
2022-09-23T01:21:31.132Z,5.93
2022-09-23T01:22:31.132Z,5.93
2022-09-23T01:23:31.132Z,5.92
2022-09-23T01:24:32.004Z,5.91
2022-09-23T01:25:31.113Z,5.91
2022-09-23T01:26:31.191Z,5.91
2022-09-23T01:27:31.141Z,5.89
2022-09-23T01:28:31.051Z,5.88
2022-09-23T01:29:32.958Z,5.83
2022-09-23T01:30:31.082Z,5.82
2022-09-23T01:31:33.032Z,5.78
2022-09-23T01:32:31.592Z,5.77
2022-09-23T01:33:31.322Z,5.78
2022-09-23T01:34:31.465Z,5.78
2022-09-23T01:35:31.006Z,5.77
2022-09-23T01:36:33.884Z,5.77
2022-09-23T01:37:31.019Z,5.74
2022-09-23T01:38:31.275Z,5.73
2022-09-23T01:39:30.985Z,5.73
2022-09-23T01:40:31.098Z,5.71
2022-09-23T01:41:31.210Z,5.73
2022-09-23T01:42:30.911Z,5.71
2022-09-23T01:43:31.703Z,5.73
2022-09-23T01:44:31.594Z,5.75
2022-09-23T01:45:31.780Z,5.77
2022-09-23T01:46:32.325Z,5.78
2022-09-23T01:47:31.624Z,5.81
2022-09-23T01:48:30.792Z,5.83
2022-09-23T01:49:30.727Z,5.86
2022-09-23T01:50:31.359Z,5.91
2022-09-23T01:51:31.687Z,5.93
2022-09-23T01:52:30.748Z,5.96
2022-09-23T01:53:30.712Z,6.00
2022-09-23T01:54:31.656Z,6.03
2022-09-23T01:55:30.656Z,6.04
2022-09-23T01:56:30.674Z,6.09
2022-09-23T01:57:30.648Z,6.10
2022-09-23T01:58:31.574Z,6.18
2022-09-23T01:59:30.608Z,6.19
2022-09-23T02:00:31.327Z,6.21
2022-09-23T02:01:31.532Z,6.26
2022-09-23T02:02:30.633Z,6.30
2022-09-23T02:03:31.301Z,6.33
2022-09-23T02:04:30.574Z,6.38
2022-09-23T02:05:31.371Z,6.43
2022-09-23T02:06:31.269Z,6.47
2022-09-23T02:07:31.439Z,6.48
2022-09-23T02:08:31.943Z,6.51
2022-09-23T02:09:31.279Z,6.56
2022-09-23T02:10:31.400Z,6.61
2022-09-23T02:11:31.301Z,6.63
2022-09-23T02:12:30.418Z,6.68
2022-09-23T02:13:31.306Z,6.71
2022-09-23T02:14:30.451Z,6.73
2022-09-23T02:15:31.170Z,6.77
2022-09-23T02:16:30.378Z,6.81
2022-09-23T02:17:30.427Z,6.83
2022-09-23T02:18:30.409Z,6.86
2022-09-23T02:19:30.617Z,6.90
2022-09-23T02:20:31.221Z,6.94
2022-09-23T02:21:31.114Z,6.97
2022-09-23T02:22:31.272Z,7.02
2022-09-23T02:23:30.289Z,7.05
2022-09-23T02:24:31.085Z,7.09
2022-09-23T02:25:31.702Z,7.13
2022-09-23T02:26:30.283Z,7.19
2022-09-23T02:27:30.204Z,7.20
2022-09-23T02:28:30.950Z,7.22
2022-09-23T02:29:30.181Z,7.23
2022-09-23T02:30:31.036Z,7.22
2022-09-23T02:31:30.180Z,7.23
2022-09-23T02:32:31.073Z,7.24
2022-09-23T02:33:30.127Z,7.23
2022-09-23T02:34:30.095Z,7.24
2022-09-23T02:35:31.055Z,7.23
2022-09-23T02:36:30.966Z,7.24
2022-09-23T02:37:30.043Z,7.26
2022-09-23T02:38:30.076Z,7.26
2022-09-23T02:39:30.914Z,7.27
2022-09-23T02:40:30.988Z,7.27
2022-09-23T02:41:30.983Z,7.27
2022-09-23T02:42:29.994Z,7.31
2022-09-23T02:43:30.797Z,7.31
2022-09-23T02:44:30.960Z,7.32
2022-09-23T02:45:30.895Z,7.35
2022-09-23T02:46:30.102Z,7.38
2022-09-23T02:47:30.665Z,7.41
2022-09-23T02:48:29.910Z,7.42
2022-09-23T02:49:29.993Z,7.45
2022-09-23T02:50:30.060Z,7.45
2022-09-23T02:51:30.018Z,7.47
2022-09-23T02:52:29.852Z,7.45
2022-09-23T02:53:30.856Z,7.47
2022-09-23T02:54:29.857Z,7.50
2022-09-23T02:55:29.870Z,7.52
2022-09-23T02:56:30.371Z,7.50
2022-09-23T02:57:30.022Z,7.50
2022-09-23T02:58:30.632Z,7.53
2022-09-23T02:59:29.842Z,7.52
2022-09-23T03:00:30.697Z,7.52
2022-09-23T03:01:29.891Z,7.55
2022-09-23T03:02:29.991Z,7.56
2022-09-23T03:03:30.647Z,7.56
2022-09-23T03:04:30.575Z,7.58
2022-09-23T03:05:30.471Z,7.58
2022-09-23T03:06:30.633Z,7.59
2022-09-23T03:07:30.529Z,7.60
2022-09-23T03:08:29.930Z,7.59
2022-09-23T03:09:30.600Z,7.60
2022-09-23T03:10:30.537Z,7.63
2022-09-23T03:11:29.649Z,7.66
2022-09-23T03:12:29.762Z,7.67
2022-09-23T03:13:29.782Z,7.67
2022-09-23T03:14:31.152Z,7.69
2022-09-23T03:15:29.617Z,7.72
2022-09-23T03:16:29.586Z,7.74
2022-09-23T03:17:29.513Z,7.71
2022-09-23T03:18:29.463Z,7.71
2022-09-23T03:19:29.536Z,7.72
2022-09-23T03:20:30.312Z,7.72
2022-09-23T03:21:29.501Z,7.72
2022-09-23T03:22:29.452Z,7.74
2022-09-23T03:23:30.280Z,7.72
2022-09-23T03:24:29.403Z,7.72
2022-09-23T03:25:30.859Z,7.72
2022-09-23T03:26:30.244Z,7.71
2022-09-23T03:27:30.158Z,7.72
2022-09-23T03:28:30.334Z,7.72
2022-09-23T03:29:29.343Z,7.74
2022-09-23T03:30:29.343Z,7.75
2022-09-23T03:31:30.320Z,7.75
2022-09-23T03:32:30.182Z,7.77
2022-09-23T03:33:29.296Z,7.77
2022-09-23T03:34:30.249Z,7.77
2022-09-23T03:35:29.282Z,7.78
2022-09-23T03:36:30.673Z,7.82
2022-09-23T03:37:29.212Z,7.85
2022-09-23T03:38:30.119Z,7.89
2022-09-23T03:39:29.185Z,7.92
2022-09-23T03:40:30.028Z,7.94
2022-09-23T03:41:30.083Z,7.99
2022-09-23T03:42:29.985Z,8.04
2022-09-23T03:43:30.074Z,8.04
2022-09-23T03:44:29.129Z,8.08
2022-09-23T03:45:29.156Z,8.08
2022-09-23T03:46:29.866Z,8.07
2022-09-23T03:47:30.023Z,8.08
2022-09-23T03:48:29.096Z,8.07
2022-09-23T03:49:29.828Z,8.07
2022-09-23T03:50:29.026Z,8.04
2022-09-23T03:51:29.938Z,8.04
2022-09-23T03:52:29.799Z,8.04
2022-09-23T03:53:29.957Z,8.07
2022-09-23T03:54:29.858Z,8.04
2022-09-23T03:55:29.767Z,8.03
2022-09-23T03:56:28.948Z,8.03
2022-09-23T03:57:28.977Z,8.03
2022-09-23T03:58:29.735Z,8.03
2022-09-23T03:59:29.897Z,8.02
2022-09-23T04:00:28.897Z,8.00
2022-09-23T04:01:28.954Z,8.02
2022-09-23T04:02:29.959Z,8.04
2022-09-23T04:03:28.847Z,8.07
2022-09-23T04:04:28.856Z,8.08
2022-09-23T04:05:29.832Z,8.08
2022-09-23T04:06:29.729Z,8.10
2022-09-23T04:07:28.828Z,8.12
2022-09-23T04:08:30.242Z,8.14
2022-09-23T04:09:28.767Z,8.12
2022-09-23T04:10:29.609Z,8.14
2022-09-23T04:11:29.509Z,8.10
2022-09-23T04:12:28.918Z,8.04
2022-09-23T04:13:28.729Z,8.03
2022-09-23T04:14:28.813Z,8.00
2022-09-23T04:15:28.790Z,7.96
2022-09-23T04:16:28.741Z,7.94
2022-09-23T04:17:28.653Z,7.93
2022-09-23T04:18:28.657Z,7.92
2022-09-23T04:19:29.190Z,7.89
2022-09-23T04:20:30.447Z,7.89
2022-09-23T04:21:28.649Z,7.87
2022-09-23T04:22:28.594Z,7.84
2022-09-23T04:23:28.572Z,7.85
2022-09-23T04:24:28.603Z,7.84
2022-09-23T04:25:28.552Z,7.82
2022-09-23T04:26:29.351Z,7.84
2022-09-23T04:27:28.547Z,7.84
2022-09-23T04:28:28.585Z,7.82
2022-09-23T04:29:28.603Z,7.82
2022-09-23T04:30:29.221Z,7.84
2022-09-23T04:31:28.487Z,7.81
2022-09-23T04:32:29.284Z,7.85
2022-09-23T04:33:29.192Z,7.87
2022-09-23T04:34:29.351Z,7.90
2022-09-23T04:35:28.405Z,7.93
2022-09-23T04:36:29.175Z,7.96
2022-09-23T04:37:28.605Z,7.99
2022-09-23T04:38:28.343Z,8.00
2022-09-23T04:39:28.374Z,8.02
2022-09-23T04:40:29.338Z,8.02
2022-09-23T04:41:28.306Z,8.03
2022-09-23T04:42:28.364Z,8.02
2022-09-23T04:43:29.316Z,8.02
2022-09-23T04:44:29.156Z,8.02
2022-09-23T04:45:28.324Z,8.02
2022-09-23T04:46:28.378Z,8.03
2022-09-23T04:47:29.126Z,8.03
2022-09-23T04:48:29.034Z,8.04
2022-09-23T04:49:28.227Z,8.07
2022-09-23T04:50:28.389Z,8.11
2022-09-23T04:51:28.198Z,8.10
2022-09-23T04:52:28.158Z,8.14
2022-09-23T04:53:28.350Z,8.14
2022-09-23T04:54:28.993Z,8.15
2022-09-23T04:55:28.198Z,8.17
2022-09-23T04:56:28.189Z,8.18
2022-09-23T04:57:29.529Z,8.20
2022-09-23T04:58:29.102Z,8.20
2022-09-23T04:59:28.245Z,8.20
2022-09-23T05:00:28.998Z,8.22
2022-09-23T05:01:29.047Z,8.26
2022-09-23T05:02:28.098Z,8.26
2022-09-23T05:03:28.908Z,8.30
2022-09-23T05:04:28.787Z,8.30
2022-09-23T05:05:28.938Z,8.35
2022-09-23T05:06:28.911Z,8.36
2022-09-23T05:07:28.138Z,8.37
2022-09-23T05:08:29.427Z,8.42
2022-09-23T05:09:28.825Z,8.42
2022-09-23T05:10:28.257Z,8.42
2022-09-23T05:11:28.036Z,8.42
2022-09-23T05:12:27.931Z,8.40
2022-09-23T05:13:27.990Z,8.42
2022-09-23T05:14:28.274Z,8.42
2022-09-23T05:15:28.740Z,8.42
2022-09-23T05:16:28.676Z,8.44
2022-09-23T05:17:28.802Z,8.45
2022-09-23T05:18:27.822Z,8.44
2022-09-23T05:19:27.931Z,8.45
2022-09-23T05:20:27.811Z,8.48
2022-09-23T05:21:28.310Z,8.50
2022-09-23T05:22:27.784Z,8.50
2022-09-23T05:23:28.252Z,8.53
2022-09-23T05:24:28.645Z,8.53
2022-09-23T05:25:27.703Z,8.54
2022-09-23T05:26:28.452Z,8.57
2022-09-23T05:27:27.742Z,8.60
2022-09-23T05:28:28.513Z,8.62
2022-09-23T05:29:28.422Z,8.63
2022-09-23T05:30:28.586Z,8.65
2022-09-23T05:31:28.523Z,8.68
2022-09-23T05:32:28.395Z,8.68
2022-09-23T05:33:28.556Z,8.69
2022-09-23T05:34:27.608Z,8.72
2022-09-23T05:35:28.359Z,8.73
2022-09-23T05:36:28.523Z,8.75
2022-09-23T05:37:28.428Z,8.79
2022-09-23T05:38:27.532Z,8.81
2022-09-23T05:39:27.575Z,8.84
2022-09-23T05:40:28.501Z,8.86
2022-09-23T05:41:28.960Z,8.88
2022-09-23T05:42:28.464Z,8.88
2022-09-23T05:43:28.357Z,8.91
2022-09-23T05:44:28.266Z,8.94
2022-09-23T05:45:27.466Z,8.97
2022-09-23T05:46:28.366Z,8.99
2022-09-23T05:47:27.528Z,9.02
2022-09-23T05:48:28.388Z,9.04
2022-09-23T05:49:48.376Z,9.09
2022-09-23T05:50:29.225Z,9.09
2022-09-23T05:51:30.954Z,9.10
2022-09-23T05:52:27.438Z,9.12
2022-09-23T05:53:27.378Z,9.15
2022-09-23T05:54:28.147Z,9.18
2022-09-23T05:55:27.361Z,9.21
2022-09-23T05:56:28.174Z,9.24
2022-09-23T05:57:27.306Z,9.27
2022-09-23T05:58:27.350Z,9.31
2022-09-23T05:59:27.293Z,9.32
2022-09-23T06:00:27.287Z,9.35
2022-09-23T06:01:27.301Z,9.39
2022-09-23T06:02:27.209Z,9.45
2022-09-23T06:03:27.331Z,9.48
2022-09-23T06:04:27.562Z,9.50
2022-09-23T06:05:27.220Z,9.53
2022-09-23T06:06:27.158Z,9.56
2022-09-23T06:07:27.140Z,9.57
2022-09-23T06:08:28.002Z,9.60
2022-09-23T06:09:28.757Z,9.61
2022-09-23T06:10:28.117Z,9.66
2022-09-23T06:11:27.112Z,9.68
2022-09-23T06:12:27.882Z,9.71
2022-09-23T06:13:28.039Z,9.71
2022-09-23T06:14:28.502Z,9.75
2022-09-23T06:15:27.043Z,9.78
2022-09-23T06:16:28.126Z,9.81
2022-09-23T06:17:27.093Z,9.83
2022-09-23T06:18:27.814Z,9.86
2022-09-23T06:19:26.967Z,9.89
2022-09-23T06:20:27.902Z,9.93
2022-09-23T06:21:27.783Z,9.94
2022-09-23T06:22:27.725Z,9.97
2022-09-23T06:23:27.927Z,9.97
2022-09-23T06:24:31.085Z,10.01
2022-09-23T06:25:27.975Z,10.01
2022-09-23T06:26:27.814Z,10.04
2022-09-23T06:27:27.714Z,10.07
2022-09-23T06:28:26.870Z,10.10
2022-09-23T06:29:26.835Z,10.10
2022-09-23T06:30:26.927Z,10.14
2022-09-23T06:31:27.655Z,10.15
2022-09-23T06:32:26.843Z,10.15
2022-09-23T06:33:36.252Z,10.17
2022-09-23T06:34:28.774Z,10.17
2022-09-23T06:35:27.896Z,10.17
2022-09-23T06:36:41.030Z,10.17
2022-09-23T06:37:28.557Z,10.21
2022-09-23T06:38:26.736Z,10.25
2022-09-23T06:39:27.587Z,10.26
2022-09-23T06:40:27.575Z,10.26
2022-09-23T06:41:26.657Z,10.26
2022-09-23T06:42:27.560Z,10.30
2022-09-23T06:43:26.712Z,10.28
2022-09-23T06:44:26.749Z,10.28
2022-09-23T06:45:26.689Z,10.28
2022-09-23T06:46:27.449Z,10.26
2022-09-23T06:47:26.622Z,10.25
2022-09-23T06:48:26.640Z,10.24
2022-09-23T06:49:26.722Z,10.22
2022-09-23T06:50:27.303Z,10.22
2022-09-23T06:51:26.600Z,10.22
2022-09-23T06:52:26.702Z,10.21
2022-09-23T06:53:27.512Z,10.18
2022-09-23T06:54:27.432Z,10.15
2022-09-23T06:55:26.673Z,10.10
2022-09-23T06:56:26.752Z,10.10
2022-09-23T06:57:26.479Z,10.10
2022-09-23T06:58:26.452Z,10.07
2022-09-23T06:59:26.511Z,10.07
2022-09-23T07:00:26.424Z,10.07
2022-09-23T07:01:26.521Z,10.07
2022-09-23T07:02:26.491Z,10.15
2022-09-23T07:03:27.334Z,10.25
2022-09-23T07:04:29.357Z,10.34
2022-09-23T07:05:26.431Z,10.42
2022-09-23T07:06:26.392Z,10.51
2022-09-23T07:07:26.309Z,10.52
2022-09-23T07:08:27.124Z,10.55
2022-09-23T07:09:26.315Z,10.56
2022-09-23T07:10:27.726Z,10.58
2022-09-23T07:11:26.708Z,10.56
2022-09-23T07:12:26.391Z,10.55
2022-09-23T07:13:26.330Z,10.52
2022-09-23T07:14:26.330Z,10.52
2022-09-23T07:15:26.294Z,10.53
2022-09-23T07:16:26.254Z,10.52
2022-09-23T07:17:26.181Z,10.52
2022-09-23T07:18:26.221Z,10.63
2022-09-23T07:19:27.076Z,10.71
2022-09-23T07:20:26.317Z,10.77
2022-09-23T07:21:27.580Z,10.81
2022-09-23T07:22:26.206Z,10.88
2022-09-23T07:23:26.368Z,10.86
2022-09-23T07:24:26.854Z,10.86
2022-09-23T07:25:26.090Z,10.92
2022-09-23T07:26:26.057Z,10.95
2022-09-23T07:27:26.143Z,11.09
2022-09-23T07:28:26.018Z,11.27
2022-09-23T07:29:26.228Z,11.50
2022-09-23T07:30:26.281Z,11.70
2022-09-23T07:31:38.341Z,11.93
2022-09-23T07:32:27.926Z,12.13
2022-09-23T07:33:32.272Z,12.24
2022-09-23T07:34:26.986Z,12.21
2022-09-23T07:35:26.822Z,12.24
2022-09-23T07:36:26.728Z,12.24
2022-09-23T07:37:26.897Z,12.27
2022-09-23T07:38:25.949Z,12.27
2022-09-23T07:39:26.167Z,12.24
2022-09-23T07:40:26.322Z,12.16
2022-09-23T07:41:26.789Z,12.12
2022-09-23T07:42:26.293Z,12.09
2022-09-23T07:43:26.564Z,12.09
2022-09-23T07:44:26.721Z,12.06
2022-09-23T07:45:25.781Z,12.09
2022-09-23T07:46:26.598Z,12.09
2022-09-23T07:47:26.699Z,12.13
2022-09-23T07:48:28.680Z,12.19
2022-09-23T07:49:26.743Z,12.20
2022-09-23T07:50:26.041Z,12.26
2022-09-23T07:51:25.806Z,12.29
2022-09-23T07:52:26.472Z,12.34
2022-09-23T07:53:25.713Z,12.33
2022-09-23T07:54:26.255Z,12.34
2022-09-23T07:55:25.753Z,12.39
2022-09-23T07:56:25.723Z,12.42
2022-09-23T07:57:25.880Z,12.44
2022-09-23T07:58:26.230Z,12.48
2022-09-23T07:59:25.638Z,12.54
2022-09-23T08:00:25.661Z,12.54
2022-09-23T08:01:25.758Z,12.62
2022-09-23T08:02:25.818Z,12.70
2022-09-23T08:03:25.724Z,12.79
2022-09-23T08:04:25.711Z,12.88
2022-09-23T08:05:25.693Z,13.00
2022-09-23T08:06:26.323Z,13.04
2022-09-23T08:07:25.513Z,13.04
2022-09-23T08:08:25.523Z,13.11
2022-09-23T08:09:26.391Z,13.18
2022-09-23T08:10:25.687Z,13.20
2022-09-23T08:11:25.467Z,13.24
2022-09-23T08:12:25.371Z,13.27
2022-09-23T08:13:25.383Z,13.30
2022-09-23T08:14:26.160Z,13.38
2022-09-23T08:15:25.347Z,13.37
2022-09-23T08:16:25.423Z,13.38
2022-09-23T08:17:25.331Z,13.41
2022-09-23T08:18:26.281Z,13.41
2022-09-23T08:19:26.209Z,13.41
2022-09-23T08:20:25.378Z,13.46
2022-09-23T08:21:26.355Z,13.49
2022-09-23T08:22:25.377Z,13.44
2022-09-23T08:23:26.058Z,13.41
2022-09-23T08:24:25.222Z,13.44
2022-09-23T08:25:26.128Z,13.46
2022-09-23T08:26:26.022Z,13.49
2022-09-23T08:27:25.196Z,13.47
2022-09-23T08:28:25.190Z,13.52
2022-09-23T08:29:25.153Z,13.55
2022-09-23T08:30:25.130Z,13.58
2022-09-23T08:31:25.228Z,13.59
2022-09-23T08:32:25.247Z,13.59
2022-09-23T08:33:25.240Z,13.62
2022-09-23T08:34:25.104Z,13.61
2022-09-23T08:35:25.153Z,13.61
2022-09-23T08:36:25.096Z,13.61
2022-09-23T08:37:25.086Z,13.61
2022-09-23T08:38:25.017Z,13.61
2022-09-23T08:39:25.016Z,13.63
2022-09-23T08:40:25.060Z,13.65
2022-09-23T08:41:25.865Z,13.65
2022-09-23T08:42:25.766Z,13.63
2022-09-23T08:43:25.930Z,13.69
2022-09-23T08:44:25.865Z,13.69
2022-09-23T08:45:24.979Z,13.70
2022-09-23T08:46:24.987Z,13.73
2022-09-23T08:47:25.799Z,13.73
2022-09-23T08:48:25.709Z,13.73
2022-09-23T08:49:24.930Z,13.69
2022-09-23T08:50:24.901Z,13.69
2022-09-23T08:51:25.712Z,13.67
2022-09-23T08:52:25.059Z,13.62
2022-09-23T08:53:25.110Z,13.61
2022-09-23T08:54:25.646Z,13.59
2022-09-23T08:55:25.799Z,13.62
2022-09-23T08:56:24.781Z,13.63
2022-09-23T08:57:25.612Z,13.62
2022-09-23T08:58:25.987Z,13.63
2022-09-23T08:59:25.673Z,13.63
2022-09-23T09:00:26.177Z,13.62
2022-09-23T09:01:24.837Z,13.61
2022-09-23T09:02:24.906Z,13.63
2022-09-23T09:03:25.595Z,13.67
2022-09-23T09:04:25.452Z,13.65
2022-09-23T09:05:24.736Z,13.69
2022-09-23T09:06:24.672Z,13.73
2022-09-23T09:07:36.340Z,13.76
2022-09-23T09:08:25.638Z,13.79
2022-09-23T09:09:24.638Z,13.80
2022-09-23T09:10:25.386Z,13.83
2022-09-23T09:11:25.537Z,13.87
2022-09-23T09:12:24.558Z,13.91
2022-09-23T09:13:24.579Z,13.92
2022-09-23T09:14:24.901Z,13.96
2022-09-23T09:15:25.006Z,14.06
2022-09-23T09:16:48.314Z,14.12
2022-09-23T09:17:25.627Z,14.19
2022-09-23T09:18:24.488Z,14.24
2022-09-23T09:19:25.287Z,14.31
2022-09-23T09:20:25.450Z,14.32
2022-09-23T09:21:24.491Z,14.35
2022-09-23T09:22:25.299Z,14.39
2022-09-23T09:23:25.870Z,14.46
2022-09-23T09:24:24.389Z,14.49
2022-09-23T09:25:24.431Z,14.50
2022-09-23T09:26:25.389Z,14.56
2022-09-23T09:27:24.427Z,14.56
2022-09-23T09:28:25.190Z,14.54
2022-09-23T09:29:34.731Z,14.61
2022-09-23T09:30:25.321Z,14.62
2022-09-23T09:31:24.414Z,14.65
2022-09-23T09:32:25.095Z,14.68
2022-09-23T09:33:24.267Z,14.68
2022-09-23T09:34:24.284Z,14.72
2022-09-23T09:35:24.279Z,14.74
2022-09-23T09:36:24.746Z,14.75
2022-09-23T09:37:24.417Z,14.74
2022-09-23T09:38:24.996Z,14.78
2022-09-23T09:39:26.298Z,14.81
2022-09-23T09:40:25.198Z,14.83
2022-09-23T09:41:24.222Z,14.86
2022-09-23T09:42:24.145Z,14.86
2022-09-23T09:43:24.469Z,14.87
2022-09-23T09:44:24.936Z,14.90
2022-09-23T09:45:25.097Z,14.90
2022-09-23T09:46:24.106Z,14.93
2022-09-23T09:47:24.088Z,14.95
2022-09-23T09:48:24.069Z,14.98
2022-09-23T09:49:24.087Z,15.01
2022-09-23T09:50:24.877Z,15.02
2022-09-23T09:51:24.029Z,15.02
2022-09-23T09:52:25.537Z,15.05
2022-09-23T09:53:24.879Z,15.08
2022-09-23T09:54:23.956Z,15.09
2022-09-23T09:55:24.847Z,15.12
2022-09-23T09:56:23.956Z,15.13
2022-09-23T09:57:24.255Z,15.20
2022-09-23T09:58:24.860Z,15.21
2022-09-23T09:59:24.055Z,15.26
2022-09-23T10:00:24.680Z,15.30
2022-09-23T10:01:24.852Z,15.38
2022-09-23T10:02:24.694Z,15.48
2022-09-23T10:03:23.814Z,15.57
2022-09-23T10:04:23.884Z,15.64
2022-09-23T10:05:24.655Z,15.74
2022-09-23T10:06:24.554Z,15.81
2022-09-23T10:07:23.807Z,15.88
2022-09-23T10:08:23.814Z,15.99
2022-09-23T10:09:24.541Z,16.06
2022-09-23T10:10:33.172Z,16.15
2022-09-23T10:11:24.686Z,16.23
2022-09-23T10:12:23.723Z,16.33
2022-09-23T10:13:23.721Z,16.38
2022-09-23T10:14:24.761Z,16.45
2022-09-23T10:15:24.488Z,16.55
2022-09-23T10:16:24.638Z,16.62
2022-09-23T10:17:24.522Z,16.68
2022-09-23T10:18:24.422Z,16.73
2022-09-23T10:19:23.572Z,16.80
2022-09-23T10:20:24.488Z,16.83
2022-09-23T10:21:27.959Z,16.89
2022-09-23T10:22:23.521Z,16.98
2022-09-23T10:23:23.543Z,17.06
2022-09-23T10:24:24.363Z,17.08
2022-09-23T10:25:23.661Z,17.13
2022-09-23T10:26:23.480Z,17.15
2022-09-23T10:27:24.330Z,17.17
2022-09-23T10:28:23.451Z,17.26
2022-09-23T10:29:24.394Z,17.33
2022-09-23T10:30:24.293Z,17.41
2022-09-23T10:31:24.212Z,17.47
2022-09-23T10:32:23.407Z,17.59
2022-09-23T10:33:24.269Z,17.69
2022-09-23T10:34:24.170Z,17.79
2022-09-23T10:35:23.346Z,17.92
2022-09-23T10:36:23.334Z,18.07
2022-09-23T10:37:23.307Z,18.18
2022-09-23T10:38:23.308Z,18.36
2022-09-23T10:39:23.330Z,18.50
2022-09-23T10:40:23.305Z,18.73
2022-09-23T10:41:24.273Z,18.95
2022-09-23T10:42:23.242Z,19.15
2022-09-23T10:43:24.084Z,19.31
2022-09-23T10:44:24.242Z,19.50
2022-09-23T10:45:23.293Z,19.65
2022-09-23T10:46:24.130Z,19.86
2022-09-23T10:47:23.205Z,20.15
2022-09-23T10:48:24.110Z,20.41
2022-09-23T10:49:24.109Z,20.69
2022-09-23T10:50:23.920Z,20.90
2022-09-23T10:51:26.093Z,21.11
2022-09-23T10:52:23.156Z,21.46
2022-09-23T10:53:24.081Z,21.81
2022-09-23T10:54:24.052Z,22.09
2022-09-23T10:55:23.953Z,22.19
2022-09-23T10:56:23.054Z,22.31
2022-09-23T10:57:23.035Z,22.27
2022-09-23T10:58:23.927Z,22.09
2022-09-23T10:59:24.475Z,21.82
2022-09-23T11:00:23.999Z,21.72
2022-09-23T11:01:23.991Z,21.45
2022-09-23T11:02:23.860Z,21.20
2022-09-23T11:03:23.959Z,21.11
2022-09-23T11:04:22.989Z,21.06
2022-09-23T11:05:23.181Z,21.13
2022-09-23T11:06:22.927Z,21.14
2022-09-23T11:07:23.841Z,21.21
2022-09-23T11:08:23.734Z,21.46
2022-09-23T11:09:22.904Z,21.83
2022-09-23T11:10:44.921Z,22.10
2022-09-23T11:11:24.726Z,22.35
2022-09-23T11:12:23.159Z,22.54
2022-09-23T11:13:23.776Z,22.75
2022-09-23T11:14:22.849Z,22.94
2022-09-23T11:15:23.579Z,23.11
2022-09-23T11:16:22.837Z,23.23
2022-09-23T11:17:23.642Z,23.42
2022-09-23T11:18:22.811Z,23.53
2022-09-23T11:19:22.753Z,23.55
2022-09-23T11:20:23.757Z,23.52
2022-09-23T11:21:23.524Z,23.49
2022-09-23T11:22:22.715Z,23.35
2022-09-23T11:23:22.756Z,23.43
2022-09-23T11:24:22.793Z,23.39
2022-09-23T11:25:23.648Z,23.43
2022-09-23T11:26:22.980Z,23.46
2022-09-23T11:27:23.459Z,23.38
2022-09-23T11:28:22.767Z,23.31
2022-09-23T11:29:22.726Z,23.24
2022-09-23T11:30:22.721Z,23.19
2022-09-23T11:31:23.677Z,23.20
2022-09-23T11:32:22.680Z,23.23
2022-09-23T11:33:23.422Z,23.29
2022-09-23T11:34:22.593Z,23.24
2022-09-23T11:35:22.576Z,23.17
2022-09-23T11:36:23.364Z,23.02
2022-09-23T11:37:22.698Z,22.89
2022-09-23T11:38:23.428Z,22.74
2022-09-23T11:39:22.614Z,22.64
2022-09-23T11:40:22.759Z,22.59
2022-09-23T11:41:22.662Z,22.62
2022-09-23T11:42:22.681Z,22.65
2022-09-23T11:43:22.437Z,22.65
2022-09-23T11:44:23.361Z,22.64
2022-09-23T11:45:22.426Z,22.64
2022-09-23T11:46:23.215Z,22.46
2022-09-23T11:47:22.419Z,22.38
2022-09-23T11:48:22.382Z,22.29
2022-09-23T11:49:22.575Z,22.22
2022-09-23T11:50:22.561Z,22.22
2022-09-23T11:51:22.625Z,22.16
2022-09-23T11:52:22.714Z,22.13
2022-09-23T11:53:22.337Z,22.02
2022-09-23T11:54:23.167Z,21.92
2022-09-23T11:55:23.344Z,21.88
2022-09-23T11:56:31.494Z,21.85
2022-09-23T11:57:24.176Z,21.88
2022-09-23T11:58:25.947Z,21.90
2022-09-23T11:59:34.703Z,21.94
2022-09-23T12:00:23.353Z,21.95
2022-09-23T12:01:33.860Z,22.01
2022-09-23T12:02:28.238Z,22.09
2022-09-23T12:03:30.369Z,22.09
2022-09-23T12:04:24.432Z,22.13
2022-09-23T12:05:23.263Z,22.25
2022-09-23T12:06:23.080Z,22.28
2022-09-23T12:07:22.953Z,22.31
2022-09-23T12:08:22.227Z,22.27
2022-09-23T12:09:40.976Z,22.35
2022-09-23T12:10:23.946Z,22.34
2022-09-23T12:11:22.116Z,22.34
2022-09-23T12:12:26.846Z,22.32
2022-09-23T12:13:22.892Z,22.37
2022-09-23T12:14:22.173Z,22.37
2022-09-23T12:15:22.027Z,22.34
2022-09-23T12:16:22.094Z,22.34
2022-09-23T12:17:22.109Z,22.31
2022-09-23T12:18:23.231Z,22.28
2022-09-23T12:19:22.025Z,22.27
2022-09-23T12:20:22.088Z,22.14
2022-09-23T12:21:45.845Z,22.12
2022-09-23T12:22:22.947Z,22.09
2022-09-23T12:23:22.715Z,22.04
2022-09-23T12:24:21.976Z,22.09
2022-09-23T12:25:22.046Z,22.07
2022-09-23T12:26:23.299Z,21.98
2022-09-23T12:27:21.919Z,21.97
2022-09-23T12:28:21.883Z,21.92
2022-09-23T12:29:22.671Z,21.83
2022-09-23T12:30:21.966Z,21.82
2022-09-23T12:31:22.702Z,21.79
2022-09-23T12:32:21.772Z,21.76
2022-09-23T12:33:22.819Z,21.75
2022-09-23T12:34:21.854Z,21.79
2022-09-23T12:35:22.576Z,21.78
2022-09-23T12:36:22.735Z,21.76
2022-09-23T12:37:22.642Z,21.69
2022-09-23T12:38:22.548Z,21.66
2022-09-23T12:39:21.676Z,21.66
2022-09-23T12:40:21.740Z,21.64
2022-09-23T12:41:21.725Z,21.61
2022-09-23T12:42:21.677Z,21.57
2022-09-23T12:43:22.583Z,21.48
2022-09-23T12:44:22.118Z,21.38
2022-09-23T12:45:21.612Z,21.35
2022-09-23T12:46:22.602Z,21.30
2022-09-23T12:47:21.573Z,21.29
2022-09-23T12:48:22.352Z,21.20
2022-09-23T12:49:21.570Z,21.05
2022-09-23T12:50:24.395Z,20.98
2022-09-23T12:51:22.323Z,20.95
2022-09-23T12:52:22.482Z,20.93
2022-09-23T12:53:22.386Z,20.95
2022-09-23T12:54:22.292Z,20.90
2022-09-23T12:55:22.468Z,20.98
2022-09-23T12:56:21.575Z,21.04
2022-09-23T12:57:21.910Z,21.06
2022-09-23T12:58:22.414Z,21.14
2022-09-23T12:59:22.317Z,21.19
2022-09-23T13:00:21.475Z,21.30
2022-09-23T13:01:22.539Z,21.30
2022-09-23T13:02:21.470Z,21.32
2022-09-23T13:03:21.554Z,21.41
2022-09-23T13:04:22.402Z,21.44
2022-09-23T13:05:22.787Z,21.42